Time;durP1;ratioP1;P1;durP2;ratioP2;P2;SDS_P1;SDS_P2;PMS_P1;PMS_P2;Temp;Humidity;BMP_temperature;BMP_pressure;BME280_temperature;BME280_humidity;BME280_pressure;Samples;Min_cycle;Max_cycle;Signal;HPM_P1;HPM_P2
2024/03/09 00:00:28;;;;;;;80.40;40.10;;;;;;;0.10;78.11;100296.89;134850;1298;22462;-82
2024/03/09 00:03:28;;;;;;;85.10;42.00;;;;;;;0.13;78.25;100293.98;134859;1298;22359;-81
2024/03/09 00:06:29;;;;;;;81.70;42.50;;;;;;;0.15;78.47;100294.68;134872;1293;22247;-81
2024/03/09 00:09:34;;;;;;;81.40;43.30;;;;;;;0.17;78.66;100287.25;134637;1300;22332;-80
2024/03/09 00:12:39;;;;;;;81.70;42.00;;;;;;;0.18;78.91;100281.95;134855;1296;22391;-81
2024/03/09 00:15:41;;;;;;;78.40;40.00;;;;;;;0.19;78.69;100279.63;134853;1300;23047;-80
2024/03/09 00:18:45;;;;;;;80.80;42.30;;;;;;;0.22;78.97;100279.25;134853;1289;22412;-81
2024/03/09 00:21:45;;;;;;;82.60;41.10;;;;;;;0.26;79.28;100277.95;134847;1293;22313;-80
2024/03/09 00:24:46;;;;;;;83.70;41.70;;;;;;;0.30;79.11;100271.98;134861;1295;23085;-81
2024/03/09 00:27:46;;;;;;;84.10;45.30;;;;;;;0.33;79.45;100277.38;134830;1290;22301;-81
2024/03/09 00:30:46;;;;;;;85.10;42.60;;;;;;;0.35;79.30;100272.54;134878;1295;22374;-80
2024/03/09 00:33:49;;;;;;;80.50;42.50;;;;;;;0.34;79.33;100273.45;134848;1296;23258;-80
2024/03/09 00:36:49;;;;;;;78.80;40.00;;;;;;;0.36;79.65;100271.80;134827;1300;22407;-80
2024/03/09 00:39:50;;;;;;;73.40;39.50;;;;;;;0.39;79.30;100272.44;134820;1300;22434;-78
2024/03/09 00:42:53;;;;;;;76.20;38.20;;;;;;;0.38;79.45;100265.36;134851;1299;23025;-81
2024/03/09 00:45:53;;;;;;;77.30;39.90;;;;;;;0.36;79.52;100262.52;134835;1296;22286;-80
2024/03/09 00:48:54;;;;;;;80.80;39.40;;;;;;;0.38;79.73;100259.81;134846;1292;22447;-80
2024/03/09 00:51:54;;;;;;;77.30;40.80;;;;;;;0.39;79.64;100255.20;134832;1300;22359;-81
2024/03/09 00:54:55;;;;;;;70.10;37.50;;;;;;;0.39;79.75;100252.23;134846;1293;22383;-81
2024/03/09 00:57:56;;;;;;;71.30;39.10;;;;;;;0.37;79.73;100247.35;134648;1292;22363;-80
2024/03/09 01:00:56;;;;;;;77.10;39.50;;;;;;;0.35;79.76;100247.96;134851;1296;23775;-80
2024/03/09 01:04:00;;;;;;;79.90;39.10;;;;;;;0.37;79.80;100244.39;134847;1300;23225;-80
2024/03/09 01:07:00;;;;;;;72.90;37.90;;;;;;;0.36;79.82;100241.65;134837;1300;22486;-81
2024/03/09 01:10:01;;;;;;;77.30;40.80;;;;;;;0.35;79.78;100238.05;134668;1299;22555;-82
2024/03/09 01:13:05;;;;;;;;;;;;;;;0.34;79.67;100236.55;134906;1296;22549;-81
2024/03/09 01:16:05;;;;;;;79.70;39.20;;;;;;;0.34;79.51;100234.86;134861;1300;22453;-81
2024/03/09 01:19:06;;;;;;;75.70;39.80;;;;;;;0.31;79.97;100232.05;134886;1298;22470;-81
2024/03/09 01:22:06;;;;;;;71.00;38.70;;;;;;;0.28;79.63;100227.58;134840;1295;22215;-81
2024/03/09 01:25:07;;;;;;;80.00;38.40;;;;;;;0.25;79.84;100223.77;134874;1300;22303;-81
2024/03/09 01:28:08;;;;;;;78.60;37.80;;;;;;;0.21;79.86;100220.20;134857;1300;22276;-81
2024/03/09 01:31:13;;;;;;;73.70;38.40;;;;;;;0.14;79.58;100217.31;134871;1297;22520;-80
2024/03/09 01:34:15;;;;;;;81.10;41.60;;;;;;;-0.00;79.09;100211.79;134858;1295;22363;-81
2024/03/09 01:37:19;;;;;;;79.50;39.60;;;;;;;-0.14;79.29;100212.98;134851;1300;22521;-81
2024/03/09 01:40:20;;;;;;;80.80;41.50;;;;;;;-0.27;79.31;100211.08;134850;1300;22398;-81
2024/03/09 01:43:20;;;;;;;85.10;42.50;;;;;;;-0.39;79.57;100211.41;134888;1300;23186;-81
2024/03/09 01:46:21;;;;;;;80.90;42.70;;;;;;;-0.48;79.66;100207.62;134856;1298;23205;-81
2024/03/09 01:49:22;;;;;;;;;;;;;;;-0.61;79.99;100203.73;134906;1293;22432;-81
2024/03/09 01:52:25;;;;;;;78.50;40.10;;;;;;;-0.72;80.10;100199.92;134861;1292;22241;-81
2024/03/09 01:55:29;;;;;;;77.70;41.10;;;;;;;-0.81;80.38;100195.58;134854;1296;22258;-82
2024/03/09 01:58:31;;;;;;;67.80;36.70;;;;;;;-0.86;80.36;100199.36;134839;1296;22354;-82
2024/03/09 02:01:34;;;;;;;76.90;40.60;;;;;;;-0.88;80.56;100191.13;134844;1292;23091;-80
2024/03/09 02:04:34;;;;;;;72.90;38.10;;;;;;;-0.89;80.72;100182.15;134859;1292;23280;-81
2024/03/09 02:07:35;;;;;;;82.10;43.60;;;;;;;-0.89;80.98;100181.61;134876;1293;22516;-80
2024/03/09 02:10:39;;;;;;;79.40;40.90;;;;;;;-0.90;81.04;100179.06;134853;1293;22501;-82
2024/03/09 02:13:41;;;;;;;84.60;44.70;;;;;;;-0.95;81.04;100179.91;134654;1295;22365;-82
2024/03/09 02:16:41;;;;;;;75.80;38.50;;;;;;;-0.99;81.20;100179.27;134847;1293;22363;-81
2024/03/09 02:19:42;;;;;;;82.50;45.20;;;;;;;-1.03;81.72;100177.27;134834;1293;22859;-81
2024/03/09 02:22:46;;;;;;;85.10;41.80;;;;;;;-1.07;81.98;100174.52;134854;1293;23302;-81
2024/03/09 02:25:47;;;;;;;79.10;41.10;;;;;;;-1.09;81.91;100170.33;134822;1288;22385;-81
2024/03/09 02:28:54;;;;;;;86.00;44.40;;;;;;;-1.10;82.15;100163.77;134874;1295;22984;-81
2024/03/09 02:31:55;;;;;;;90.00;43.90;;;;;;;-1.10;82.04;100164.32;134590;1300;22365;-80
2024/03/09 02:34:56;;;;;;;84.00;42.50;;;;;;;-1.09;82.07;100161.30;134637;1300;23059;-77
2024/03/09 02:37:56;;;;;;;82.50;41.90;;;;;;;-1.09;82.29;100160.09;134873;1300;22233;-82
2024/03/09 02:40:59;;;;;;;84.70;44.20;;;;;;;-1.10;82.31;100162.23;134870;1300;22300;-78
2024/03/09 02:44:03;;;;;;;85.70;43.00;;;;;;;-1.14;82.60;100157.61;134859;1296;23075;-82
2024/03/09 02:47:05;;;;;;;84.20;41.90;;;;;;;-1.16;82.49;100154.21;134874;1300;22417;-81
2024/03/09 02:50:06;;;;;;;82.80;41.40;;;;;;;-1.17;82.66;100157.41;134829;1300;23361;-81
2024/03/09 02:53:06;;;;;;;;;;;;;;;-1.19;83.05;100161.02;134883;1293;23218;-81
2024/03/09 02:56:09;;;;;;;85.30;41.30;;;;;;;-1.21;83.60;100154.38;134876;1292;22348;-82
2024/03/09 02:59:10;;;;;;;83.50;40.30;;;;;;;-1.21;83.49;100154.70;134864;1298;22260;-80
2024/03/09 03:05:29;;;;;;;74.10;37.40;;;;;;;-1.20;83.51;100147.84;134880;1295;22274;-81
2024/03/09 03:08:30;;;;;;;78.10;41.90;;;;;;;-1.21;83.30;100146.23;134860;1300;22380;-81
2024/03/09 03:11:32;;;;;;;92.20;42.50;;;;;;;-1.24;83.44;100139.59;134863;1300;23021;-81
2024/03/09 03:14:32;;;;;;;82.00;41.10;;;;;;;-1.26;83.58;100134.73;134628;1295;22423;-78
2024/03/09 03:17:33;;;;;;;81.60;40.70;;;;;;;-1.30;83.70;100135.66;134883;1278;22539;-81
2024/03/09 03:20:34;;;;;;;75.70;38.50;;;;;;;-1.33;83.92;100136.20;134849;1295;22419;-79
2024/03/09 03:23:36;;;;;;;78.80;37.40;;;;;;;-1.36;84.12;100131.11;134794;1300;22534;-81
2024/03/09 03:26:36;;;;;;;79.30;38.70;;;;;;;-1.37;84.27;100128.94;134683;1297;22380;-82
2024/03/09 03:29:37;;;;;;;84.90;39.80;;;;;;;-1.39;84.32;100130.05;134664;1301;23420;-81
2024/03/09 03:32:37;;;;;;;78.50;39.00;;;;;;;-1.41;84.64;100122.21;134639;1294;22367;-82
2024/03/09 03:35:38;;;;;;;91.90;43.60;;;;;;;-1.42;84.74;100129.23;134671;1301;22425;-82
2024/03/09 03:38:41;;;;;;;84.00;41.00;;;;;;;-1.43;84.86;100125.13;134682;1298;22461;-81
2024/03/09 03:41:42;;;;;;;77.80;40.70;;;;;;;-1.43;85.44;100125.65;134660;1291;22208;-81
2024/03/09 03:44:42;;;;;;;83.70;39.90;;;;;;;-1.44;85.51;100123.58;134658;1301;22455;-81
2024/03/09 03:47:43;;;;;;;86.70;40.90;;;;;;;-1.44;85.60;100131.23;134642;1294;22485;-80
2024/03/09 03:50:43;;;;;;;76.80;39.20;;;;;;;-1.43;85.55;100127.90;134675;1298;22392;-81
2024/03/09 03:53:44;;;;;;;88.30;42.50;;;;;;;-1.43;85.86;100122.36;134671;1294;23228;-80
2024/03/09 03:56:45;;;;;;;80.50;37.40;;;;;;;-1.43;85.60;100126.70;134665;1294;22368;-80
2024/03/09 03:59:45;;;;;;;86.50;44.20;;;;;;;-1.43;86.00;100125.64;134672;1301;23392;-82
2024/03/09 04:02:46;;;;;;;81.80;40.70;;;;;;;-1.44;86.13;100119.58;134661;1298;23971;-81
2024/03/09 04:05:53;;;;;;;76.70;38.70;;;;;;;-1.45;86.09;100119.87;134671;1297;22387;-82
2024/03/09 04:08:53;;;;;;;84.60;41.90;;;;;;;-1.47;86.24;100115.83;134643;1295;22733;-82
2024/03/09 04:11:54;;;;;;;85.40;38.80;;;;;;;-1.49;86.59;100115.44;134626;1298;22411;-81
2024/03/09 04:14:55;;;;;;;90.60;42.90;;;;;;;-1.51;86.76;100118.63;134668;1301;23219;-81
2024/03/09 04:17:56;;;;;;;89.50;42.40;;;;;;;-1.51;86.62;100111.70;134577;1295;22561;-81
2024/03/09 04:20:57;;;;;;;88.00;43.10;;;;;;;-1.51;86.99;100109.61;134680;1301;22564;-80
2024/03/09 04:23:57;;;;;;;81.60;40.20;;;;;;;-1.51;86.87;100116.89;134674;1295;22289;-81
2024/03/09 04:26:58;;;;;;;95.50;44.60;;;;;;;-1.51;87.23;100112.42;134660;1294;22630;-80
2024/03/09 04:29:59;;;;;;;96.40;41.00;;;;;;;-1.53;87.52;100107.30;134670;1297;22269;-81
2024/03/09 04:33:06;;;;;;;79.90;40.40;;;;;;;-1.54;87.52;100109.64;134651;1297;22272;-77
2024/03/09 04:36:07;;;;;;;71.80;35.20;;;;;;;-1.56;88.04;100109.91;134622;1295;22413;-77
2024/03/09 04:39:09;;;;;;;;;;;;;;;-1.58;87.96;100112.27;134691;1301;22596;-81
2024/03/09 04:42:10;;;;;;;90.80;42.60;;;;;;;-1.58;87.84;100104.33;134667;1291;22415;-81
2024/03/09 04:45:10;;;;;;;86.80;43.20;;;;;;;-1.60;87.92;100102.31;134688;1295;22401;-81
2024/03/09 04:48:13;;;;;;;91.30;43.20;;;;;;;-1.60;87.68;100099.93;134664;1294;22289;-80
2024/03/09 04:51:16;;;;;;;78.80;40.60;;;;;;;-1.61;87.81;100099.80;134688;1290;22261;-80
2024/03/09 04:54:19;;;;;;;90.20;43.90;;;;;;;-1.60;88.38;100095.91;134673;1294;23087;-81
2024/03/09 04:57:24;;;;;;;77.20;39.80;;;;;;;-1.61;87.99;100092.46;134656;1294;22356;-81
2024/03/09 05:00:29;;;;;;;90.10;43.30;;;;;;;-1.62;88.01;100089.13;134650;1301;22449;-81
2024/03/09 05:03:29;;;;;;;78.30;40.00;;;;;;;-1.63;88.06;100092.30;134675;1301;22473;-81
2024/03/09 05:06:30;;;;;;;82.00;41.10;;;;;;;-1.63;88.36;100092.82;134686;1294;22877;-81
2024/03/09 05:09:31;;;;;;;;;;;;;;;-1.62;88.14;100089.65;134720;1294;22438;-80
2024/03/09 05:12:32;;;;;;;88.60;44.30;;;;;;;-1.62;87.97;100091.70;134672;1301;22488;-81
2024/03/09 05:15:33;;;;;;;97.00;45.20;;;;;;;-1.62;88.34;100095.89;134642;1294;22384;-81
2024/03/09 05:18:33;;;;;;;90.00;42.10;;;;;;;-1.62;88.16;100092.43;134659;1298;22275;-81
2024/03/09 05:21:35;;;;;;;79.50;40.80;;;;;;;-1.61;88.53;100095.44;134660;1294;22353;-80
2024/03/09 05:24:39;;;;;;;93.80;43.60;;;;;;;-1.57;88.51;100090.59;134498;1295;23533;-81
2024/03/09 05:27:42;;;;;;;81.40;41.00;;;;;;;-1.56;88.63;100090.66;134482;1297;22465;-78
2024/03/09 05:30:43;;;;;;;80.40;39.30;;;;;;;-1.53;88.53;100092.20;134458;1297;23030;-81
2024/03/09 05:33:43;;;;;;;83.20;40.60;;;;;;;-1.50;88.40;100083.55;134465;1284;22450;-80
2024/03/09 05:36:44;;;;;;;86.30;43.40;;;;;;;-1.44;88.56;100080.89;134482;1292;22216;-80
2024/03/09 05:39:49;;;;;;;91.20;43.30;;;;;;;-1.37;88.62;100084.88;134477;1294;22271;-80
2024/03/09 05:42:50;;;;;;;83.60;38.50;;;;;;;-1.29;88.69;100085.56;134460;1294;22353;-80
2024/03/09 05:45:50;;;;;;;81.50;40.10;;;;;;;-1.20;88.76;100087.33;134457;1294;22421;-80
2024/03/09 05:48:51;;;;;;;85.00;40.20;;;;;;;-1.13;88.86;100085.64;134433;1294;23213;-81
2024/03/09 05:51:52;;;;;;;78.70;39.00;;;;;;;-1.04;88.68;100085.98;134455;1294;22358;-81
2024/03/09 05:54:52;;;;;;;;;;;;;;;-0.89;88.83;100078.50;134504;1294;22460;-81
2024/03/09 05:57:54;;;;;;;94.10;45.30;;;;;;;-0.75;88.37;100080.89;134488;1294;22436;-79
2024/03/09 06:00:58;;;;;;;79.00;37.70;;;;;;;-0.58;88.43;100078.08;134455;1296;22354;-82
2024/03/09 06:03:59;;;;;;;78.80;40.10;;;;;;;-0.36;88.40;100080.16;134461;1295;22441;-82
2024/03/09 06:07:02;;;;;;;92.40;46.00;;;;;;;-0.14;88.17;100077.02;134474;1297;22277;-81
2024/03/09 06:10:07;;;;;;;88.60;45.30;;;;;;;0.09;88.00;100080.60;134506;1297;22294;-77
2024/03/09 06:13:08;;;;;;;80.30;41.60;;;;;;;0.33;87.59;100082.15;134438;1297;23019;-81
2024/03/09 06:16:14;;;;;;;81.90;39.30;;;;;;;0.51;87.14;100079.52;134504;1294;23248;-80
2024/03/09 06:19:18;;;;;;;81.80;40.90;;;;;;;0.66;86.83;100079.58;134475;1292;22627;-79
2024/03/09 06:22:19;;;;;;;84.70;42.20;;;;;;;0.84;86.65;100080.95;134475;1302;22356;-81
2024/03/09 06:25:24;;;;;;;87.00;45.10;;;;;;;1.02;86.35;100083.02;134789;1295;22395;-80
2024/03/09 06:28:26;;;;;;;93.10;47.10;;;;;;;1.21;85.91;100079.77;134869;1300;22368;-79
2024/03/09 06:31:30;;;;;;;82.80;42.20;;;;;;;1.37;85.54;100079.36;134878;1295;23054;-80
2024/03/09 06:34:33;;;;;;;78.90;40.70;;;;;;;1.53;85.56;100081.31;134864;1297;22368;-80
2024/03/09 06:37:35;;;;;;;76.50;42.00;;;;;;;1.72;84.84;100080.64;134867;1286;22441;-79
2024/03/09 06:40:45;;;;;;;88.50;47.00;;;;;;;1.85;84.56;100076.59;134866;1292;22391;-82
2024/03/09 06:43:45;;;;;;;78.70;44.30;;;;;;;1.95;84.05;100071.27;134849;1294;22388;-80
2024/03/09 06:46:51;;;;;;;81.80;42.60;;;;;;;2.07;84.26;100070.40;134853;1300;22428;-77
2024/03/09 06:49:52;;;;;;;82.50;42.40;;;;;;;2.27;83.83;100066.48;134709;1295;22439;-81
2024/03/09 06:52:59;;;;;;;83.50;45.90;;;;;;;2.47;83.79;100070.45;134834;1300;22358;-80
2024/03/09 06:56:03;;;;;;;89.20;44.10;;;;;;;2.78;83.77;100064.74;134596;1298;22483;-81
2024/03/09 06:59:03;;;;;;;82.00;43.30;;;;;;;3.09;83.66;100066.16;134852;1293;22460;-80
2024/03/09 07:02:04;;;;;;;78.00;43.00;;;;;;;3.36;82.78;100064.40;134842;1294;23055;-81
2024/03/09 07:05:09;;;;;;;79.40;42.90;;;;;;;3.60;82.56;100064.59;134834;1292;22362;-81
2024/03/09 07:08:10;;;;;;;76.40;42.30;;;;;;;3.85;82.51;100056.29;134849;1300;22378;-81
2024/03/09 07:11:10;;;;;;;73.20;41.20;;;;;;;4.14;81.85;100056.30;134827;1300;22374;-81
2024/03/09 07:14:11;;;;;;;80.20;44.20;;;;;;;4.32;81.02;100055.68;134821;1292;22386;-81
2024/03/09 07:17:17;;;;;;;79.50;43.70;;;;;;;4.50;81.32;100055.55;134843;1295;22416;-81
2024/03/09 07:20:23;;;;;;;77.30;43.80;;;;;;;4.85;81.20;100055.98;134876;1295;22249;-81
2024/03/09 07:23:23;;;;;;;85.30;45.80;;;;;;;5.17;80.89;100052.29;134786;1292;22404;-81
2024/03/09 07:26:30;;;;;;;70.80;41.20;;;;;;;5.55;80.75;100051.45;134676;1297;22463;-80
2024/03/09 07:29:31;;;;;;;76.40;41.50;;;;;;;5.83;79.38;100053.64;134661;1298;22449;-81
2024/03/09 07:32:31;;;;;;;64.70;38.20;;;;;;;6.06;78.43;100050.41;134601;1295;22401;-81
2024/03/09 07:35:34;;;;;;;68.90;38.40;;;;;;;6.14;78.14;100051.27;134550;1295;23112;-80
2024/03/09 07:38:34;;;;;;;64.30;38.80;;;;;;;6.45;78.44;100050.86;134668;1294;22269;-79
2024/03/09 07:41:37;;;;;;;61.80;35.60;;;;;;;6.75;77.31;100044.73;134651;1294;22448;-80
2024/03/09 07:44:41;;;;;;;68.40;39.20;;;;;;;6.69;75.36;100043.91;134681;1294;22468;-80
2024/03/09 07:47:45;;;;;;;66.50;38.80;;;;;;;6.61;75.43;100039.85;134634;1298;23338;-80
2024/03/09 07:50:48;;;;;;;71.90;41.40;;;;;;;6.54;74.63;100034.55;134640;1294;22494;-80
2024/03/09 07:53:48;;;;;;;71.20;37.70;;;;;;;6.54;74.92;100036.34;134645;1301;22257;-80
2024/03/09 07:56:49;;;;;;;63.40;36.90;;;;;;;6.69;75.11;100034.40;134651;1294;22438;-79
2024/03/09 07:59:50;;;;;;;59.90;33.60;;;;;;;6.86;74.73;100034.19;134668;1284;22399;-81
2024/03/09 08:02:50;;;;;;;64.90;38.20;;;;;;;6.89;73.54;100032.52;134640;1294;23498;-80
2024/03/09 08:05:51;;;;;;;64.40;35.40;;;;;;;6.91;73.72;100028.98;134596;1284;22410;-79
2024/03/09 08:08:52;;;;;;;65.00;38.50;;;;;;;7.00;73.06;100025.13;134675;1297;22364;-83
2024/03/09 08:11:53;;;;;;;62.80;36.60;;;;;;;7.05;73.09;100024.70;134583;1301;22467;-78
2024/03/09 08:14:53;;;;;;;62.10;35.80;;;;;;;7.21;73.44;100021.95;134692;1294;22381;-81
2024/03/09 08:17:54;;;;;;;57.90;33.20;;;;;;;7.47;73.43;100024.00;134674;1294;22364;-81
2024/03/09 08:20:58;;;;;;;50.50;30.40;;;;;;;7.81;72.97;100019.41;134676;1285;22361;-81
2024/03/09 08:23:58;;;;;;;50.40;29.80;;;;;;;8.07;71.18;100020.56;134738;1293;22456;-80
2024/03/09 08:26:59;;;;;;;52.80;33.00;;;;;;;8.18;69.97;100024.02;134880;1292;22424;-80
2024/03/09 08:30:03;;;;;;;68.20;38.30;;;;;;;8.31;69.09;100015.98;134845;1296;22364;-81
2024/03/09 08:33:09;;;;;;;52.90;30.30;;;;;;;8.50;69.24;100015.90;134866;1295;22375;-81
2024/03/09 08:36:12;;;;;;;47.30;29.50;;;;;;;8.64;69.55;100014.70;134841;1298;22362;-81
2024/03/09 08:39:13;;;;;;;50.80;30.70;;;;;;;8.83;67.57;100016.59;134845;1292;22473;-81
2024/03/09 08:42:14;;;;;;;45.00;28.20;;;;;;;8.90;67.39;100012.02;134881;1300;24383;-81
2024/03/09 08:45:15;;;;;;;46.70;28.80;;;;;;;8.95;65.33;100006.30;134862;1295;22442;-81
2024/03/09 08:48:16;;;;;;;46.10;28.60;;;;;;;8.90;64.34;100004.02;134825;1295;22338;-81
2024/03/09 08:51:20;;;;;;;50.40;30.90;;;;;;;8.97;64.97;100003.30;134837;1292;23142;-81
2024/03/09 08:54:20;;;;;;;45.00;27.40;;;;;;;9.18;65.22;100007.70;134835;1292;22967;-81
2024/03/09 08:57:21;;;;;;;47.10;29.20;;;;;;;9.24;63.45;100001.59;134816;1298;23499;-82
2024/03/09 09:00:24;;;;;;;46.70;28.70;;;;;;;9.27;64.18;99997.29;134828;1292;22368;-81
2024/03/09 09:03:24;;;;;;;47.30;28.90;;;;;;;9.32;63.43;99999.70;134620;1297;22508;-81
2024/03/09 09:06:26;;;;;;;43.90;28.00;;;;;;;9.41;63.53;100003.66;134815;1295;22422;-77
2024/03/09 09:09:26;;;;;;;37.30;22.50;;;;;;;9.55;63.63;99996.00;134625;1295;22412;-82
2024/03/09 09:12:27;;;;;;;;;;;;;;;9.65;62.98;99994.97;134596;1300;22467;-79
2024/03/09 09:15:27;;;;;;;41.90;26.40;;;;;;;9.82;63.49;99990.61;134827;1300;22122;-79
2024/03/09 09:18:30;;;;;;;36.20;22.90;;;;;;;9.86;61.47;99988.10;134871;1294;22537;-80
2024/03/09 09:21:34;;;;;;;40.50;25.00;;;;;;;9.96;62.08;99980.27;134893;1293;22306;-79
2024/03/09 09:24:36;;;;;;;36.60;24.00;;;;;;;10.18;62.46;99968.50;134882;1294;22196;-79
2024/03/09 09:27:38;;;;;;;34.90;24.30;;;;;;;10.38;61.82;99960.01;134863;1296;22394;-79
2024/03/09 09:30:38;;;;;;;34.20;21.40;;;;;;;10.59;61.36;99958.92;134871;1292;22440;-79
2024/03/09 09:33:39;;;;;;;31.10;21.10;;;;;;;10.76;60.28;99959.33;134881;1292;22364;-79
2024/03/09 09:36:40;;;;;;;35.30;21.30;;;;;;;10.75;59.97;99953.80;134696;1295;22482;-80
2024/03/09 09:39:42;;;;;;;33.10;20.80;;;;;;;10.88;59.28;99951.12;134951;1296;22410;-79
2024/03/09 09:42:47;;;;;;;30.90;20.50;;;;;;;10.91;58.90;99946.79;134913;1300;22404;-80
2024/03/09 09:45:49;;;;;;;24.90;17.10;;;;;;;10.89;57.49;99950.41;134684;1300;22554;-79
2024/03/09 09:48:52;;;;;;;27.80;18.50;;;;;;;10.72;56.83;99940.01;134905;1300;22355;-80
2024/03/09 09:51:57;;;;;;;25.90;18.80;;;;;;;10.58;56.93;99939.20;134851;1292;22371;-80
2024/03/09 09:55:01;;;;;;;24.70;16.90;;;;;;;10.61;56.23;99937.91;134857;1293;22368;-81
2024/03/09 09:58:06;;;;;;;20.30;14.90;;;;;;;10.59;55.70;99939.62;134927;1292;22451;-75
2024/03/09 10:01:08;;;;;;;24.40;15.50;;;;;;;10.51;55.73;99934.14;134873;1300;22313;-77
2024/03/09 10:04:11;;;;;;;22.10;15.10;;;;;;;10.59;56.20;99926.27;134757;1295;22288;-75
2024/03/09 10:07:12;;;;;;;18.90;12.90;;;;;;;10.72;55.53;99928.70;134702;1299;22373;-79
2024/03/09 10:10:13;;;;;;;;;;;;;;;10.83;54.22;99919.67;134928;1292;22453;-81
2024/03/09 10:13:17;;;;;;;;;;;;;;;10.92;53.83;99911.39;134926;1300;23211;-81
2024/03/09 10:16:28;;;;;;;11.20;8.50;;;;;;;11.06;53.36;99908.92;134883;1300;22418;-82
2024/03/09 10:19:34;;;;;;;14.00;9.00;;;;;;;11.08;52.10;99899.53;134780;1292;22402;-82
2024/03/09 10:22:34;;;;;;;12.00;8.80;;;;;;;11.04;51.30;99891.73;134888;1292;22388;-81
2024/03/09 10:25:36;;;;;;;14.50;9.70;;;;;;;10.99;50.74;99888.05;134833;1300;22429;-84
2024/03/09 10:28:37;;;;;;;14.60;9.70;;;;;;;11.02;50.45;99881.73;134920;1292;22592;-78
2024/03/09 10:31:42;;;;;;;13.20;9.40;;;;;;;11.06;51.56;99885.55;134618;1292;22404;-76
2024/03/09 10:34:43;;;;;;;15.20;10.80;;;;;;;11.15;52.13;99881.80;134900;1282;22429;-76
2024/03/09 10:37:46;;;;;;;12.20;8.90;;;;;;;11.33;53.03;99874.50;134861;1298;22424;-76
2024/03/09 10:40:46;;;;;;;14.60;10.50;;;;;;;11.56;51.97;99879.23;134647;1295;22229;-77
2024/03/09 10:43:54;;;;;;;16.90;11.60;;;;;;;11.54;51.75;99879.64;134678;1295;22468;-75
2024/03/09 10:47:05;;;;;;;13.00;10.40;;;;;;;11.50;51.25;99876.09;134863;1300;22381;-75
2024/03/09 10:50:09;;;;;;;17.40;12.00;;;;;;;11.42;51.64;99870.05;134613;1300;22422;-75
2024/03/09 10:54:06;;;;;;;16.40;12.20;;;;;;;11.52;51.32;99871.31;134403;1300;22516;-76
2024/03/09 10:57:13;;;;;;;19.40;12.40;;;;;;;11.40;50.90;99865.48;133784;1301;23283;-76
2024/03/09 11:00:33;;;;;;;18.40;13.10;;;;;;;11.35;51.69;99865.24;134762;1296;22536;-76
2024/03/09 11:03:35;;;;;;;19.30;13.00;;;;;;;11.39;51.46;99861.29;134453;1300;22273;-75
2024/03/09 11:06:36;;;;;;;17.80;12.30;;;;;;;11.22;51.43;99858.33;134869;1292;22362;-75
2024/03/09 11:09:37;;;;;;;19.70;13.60;;;;;;;11.11;51.75;99860.91;134594;1292;22506;-75
2024/03/09 11:12:37;;;;;;;19.10;13.40;;;;;;;10.95;51.84;99862.29;134650;1295;22379;-75
2024/03/09 11:15:39;;;;;;;;;;;;;;;10.73;52.20;99857.77;134640;1300;23280;-75
2024/03/09 11:18:55;;;;;;;17.20;12.60;;;;;;;10.85;53.38;99849.96;134882;1300;22418;-75
2024/03/09 11:21:57;;;;;;;19.40;13.30;;;;;;;10.98;52.26;99852.81;134594;1298;22438;-75
2024/03/09 11:24:57;;;;;;;19.00;13.10;;;;;;;10.94;52.51;99845.77;134418;1298;22469;-78
2024/03/09 11:27:58;;;;;;;16.20;11.50;;;;;;;10.93;52.99;99836.35;134821;1300;22404;-76
2024/03/09 11:31:11;;;;;;;12.90;9.80;;;;;;;10.88;52.73;99832.73;134657;1298;23163;-75
2024/03/09 11:34:22;;;;;;;16.20;10.20;;;;;;;10.76;52.15;99829.05;134639;1295;22468;-75
2024/03/09 11:37:25;;;;;;;14.90;10.10;;;;;;;10.71;52.43;99825.04;134531;1294;23283;-76
2024/03/09 11:40:29;;;;;;;14.70;10.30;;;;;;;10.75;52.82;99820.17;134606;1300;22259;-76
2024/03/09 11:43:30;;;;;;;16.80;10.60;;;;;;;10.84;52.29;99818.13;134875;1295;22437;-76
2024/03/09 11:46:39;;;;;;;16.70;10.50;;;;;;;11.03;52.03;99816.80;134872;1297;22415;-77
2024/03/09 11:49:40;;;;;;;13.00;9.60;;;;;;;11.30;51.23;99798.23;134657;1300;22404;-77
2024/03/09 11:52:45;;;;;;;17.00;10.00;;;;;;;11.31;50.85;99804.79;134402;1298;22523;-81
2024/03/09 11:55:48;;;;;;;15.20;10.30;;;;;;;10.99;51.23;99807.05;134555;1295;22436;-82
2024/03/09 11:58:52;;;;;;;13.60;9.70;;;;;;;10.66;51.45;99810.41;134541;1294;22436;-80
2024/03/09 12:02:00;;;;;;;;;;;;;;;10.48;51.89;99809.80;134689;1300;22433;-80
2024/03/09 12:05:04;;;;;;;15.10;10.60;;;;;;;10.37;52.58;99807.88;134624;1292;22517;-79
2024/03/09 12:08:09;;;;;;;15.90;11.20;;;;;;;10.34;52.60;99805.73;134643;1295;23155;-80
2024/03/09 12:11:09;;;;;;;16.00;11.20;;;;;;;10.30;52.37;99801.44;134629;1295;23185;-77
2024/03/09 12:14:13;;;;;;;15.90;11.10;;;;;;;10.28;53.07;99797.91;134840;1300;22487;-76
2024/03/09 12:17:15;;;;;;;17.20;11.30;;;;;;;10.34;53.63;99799.57;134832;1300;22369;-75
2024/03/09 12:20:16;;;;;;;14.40;10.90;;;;;;;10.40;53.23;99795.23;134818;1295;22362;-77
2024/03/09 12:23:20;;;;;;;17.80;11.70;;;;;;;10.34;52.84;99793.21;134772;1296;22462;-78
2024/03/09 12:26:28;;;;;;;16.90;12.00;;;;;;;10.22;52.88;99787.60;134818;1296;22395;-76
2024/03/09 12:29:32;;;;;;;16.10;11.80;;;;;;;10.15;53.06;99788.95;134856;1296;22369;-76
2024/03/09 12:32:33;;;;;;;16.80;12.20;;;;;;;10.14;53.30;99784.89;134582;1300;23209;-76
2024/03/09 12:35:34;;;;;;;17.60;12.90;;;;;;;10.15;53.74;99779.61;134819;1293;23001;-76
2024/03/09 12:38:38;;;;;;;21.20;13.80;;;;;;;10.18;53.95;99776.48;134810;1292;23213;-76
2024/03/09 12:41:42;;;;;;;20.10;12.50;;;;;;;10.16;53.89;99776.08;134820;1300;23139;-77
2024/03/09 12:44:43;;;;;;;20.30;13.30;;;;;;;10.10;54.11;99772.13;134860;1295;23152;-77
2024/03/09 12:47:44;;;;;;;18.70;12.60;;;;;;;10.12;54.26;99772.52;134639;1293;22464;-77
2024/03/09 12:50:46;;;;;;;19.10;13.10;;;;;;;10.09;53.90;99767.23;134528;1293;22434;-77
2024/03/09 12:53:57;;;;;;;17.90;12.20;;;;;;;10.04;54.57;99761.27;134649;1300;22400;-81
2024/03/09 12:57:03;;;;;;;19.50;12.20;;;;;;;10.06;54.90;99760.78;134494;1293;22514;-79
2024/03/09 13:00:11;;;;;;;19.70;12.40;;;;;;;10.04;54.71;99759.79;134565;1285;22483;-79
2024/03/09 13:03:17;;;;;;;16.80;11.80;;;;;;;9.98;54.83;99755.48;134617;1295;23195;-79
2024/03/09 13:06:18;;;;;;;19.30;12.50;;;;;;;9.94;54.78;99755.73;134830;1293;22354;-78
2024/03/09 13:09:18;;;;;;;;;;;;;;;9.91;54.71;99756.30;134816;1293;23356;-78
2024/03/09 13:12:24;;;;;;;20.10;13.20;;;;;;;9.89;54.89;99749.63;134657;1293;22407;-78
2024/03/09 13:15:28;;;;;;;19.00;12.80;;;;;;;9.89;54.96;99743.73;134683;1295;22789;-78
2024/03/09 13:18:36;;;;;;;20.00;14.00;;;;;;;9.94;55.20;99740.95;134811;1293;23349;-78
2024/03/09 13:21:37;;;;;;;19.30;12.80;;;;;;;9.94;55.04;99742.95;134858;1293;22451;-78
2024/03/09 13:24:39;;;;;;;19.40;12.70;;;;;;;9.90;55.24;99736.95;134558;1300;22372;-78
2024/03/09 13:27:40;;;;;;;19.20;12.50;;;;;;;9.87;55.61;99736.94;134613;1297;22440;-76
2024/03/09 13:30:41;;;;;;;20.50;13.00;;;;;;;9.86;56.03;99733.47;134637;1294;22412;-77
2024/03/09 13:33:42;;;;;;;19.10;12.80;;;;;;;9.87;56.00;99728.98;134594;1297;23622;-77
2024/03/09 13:36:43;;;;;;;23.30;14.10;;;;;;;9.87;55.81;99722.45;134625;1297;22416;-79
2024/03/09 13:39:43;;;;;;;;;;;;;;;9.89;55.99;99721.83;134634;1294;22446;-77
2024/03/09 13:42:48;;;;;;;21.10;12.80;;;;;;;9.93;55.85;99714.89;134593;1294;22651;-78
2024/03/09 13:45:52;;;;;;;21.50;14.30;;;;;;;9.93;55.91;99711.70;134609;1301;22396;-79
2024/03/09 13:48:52;;;;;;;20.20;13.80;;;;;;;9.91;55.82;99708.08;134603;1295;22455;-79
2024/03/09 13:51:54;;;;;;;23.40;13.70;;;;;;;9.88;55.78;99706.63;134598;1297;22426;-77
2024/03/09 13:54:56;;;;;;;22.00;14.70;;;;;;;9.86;55.60;99707.82;134640;1298;22422;-77